sensor_id;sensor_type;location;lat;lon;timestamp;P1;durP1;ratioP1;P2;durP2;ratioP2
53666;SDS011;39568;51.026;5.468;2022-08-26T00:00:48;21.20;;;11.50;;
53666;SDS011;39568;51.026;5.468;2022-08-26T00:03:16;17.33;;;10.57;;
53666;SDS011;39568;51.026;5.468;2022-08-26T00:05:43;18.52;;;9.23;;
53666;SDS011;39568;51.026;5.468;2022-08-26T00:08:11;26.75;;;10.30;;
53666;SDS011;39568;51.026;5.468;2022-08-26T00:10:39;23.35;;;10.25;;
53666;SDS011;39568;51.026;5.468;2022-08-26T00:13:06;15.95;;;7.32;;
53666;SDS011;39568;51.026;5.468;2022-08-26T00:15:35;24.58;;;9.65;;
53666;SDS011;39568;51.026;5.468;2022-08-26T00:18:03;16.40;;;8.73;;
53666;SDS011;39568;51.026;5.468;2022-08-26T00:20:30;22.95;;;8.50;;
53666;SDS011;39568;51.026;5.468;2022-08-26T00:22:58;13.65;;;8.35;;
53666;SDS011;39568;51.026;5.468;2022-08-26T00:25:25;22.88;;;8.35;;
53666;SDS011;39568;51.026;5.468;2022-08-26T00:27:52;17.05;;;8.98;;
53666;SDS011;39568;51.026;5.468;2022-08-26T00:30:20;17.42;;;9.23;;
53666;SDS011;39568;51.026;5.468;2022-08-26T00:32:50;16.63;;;9.55;;
53666;SDS011;39568;51.026;5.468;2022-08-26T00:35:17;20.60;;;8.77;;
53666;SDS011;39568;51.026;5.468;2022-08-26T00:37:44;15.63;;;8.95;;
53666;SDS011;39568;51.026;5.468;2022-08-26T00:40:13;14.95;;;8.43;;
53666;SDS011;39568;51.026;5.468;2022-08-26T00:42:41;16.77;;;8.60;;
53666;SDS011;39568;51.026;5.468;2022-08-26T00:45:08;17.45;;;9.45;;
53666;SDS011;39568;51.026;5.468;2022-08-26T00:47:36;17.92;;;9.63;;
53666;SDS011;39568;51.026;5.468;2022-08-26T00:50:07;15.13;;;8.52;;
53666;SDS011;39568;51.026;5.468;2022-08-26T00:52:37;15.05;;;7.22;;
53666;SDS011;39568;51.026;5.468;2022-08-26T00:55:05;15.68;;;8.25;;
53666;SDS011;39568;51.026;5.468;2022-08-26T00:57:35;18.00;;;7.97;;
53666;SDS011;39568;51.026;5.468;2022-08-26T01:00:04;15.50;;;8.18;;
53666;SDS011;39568;51.026;5.468;2022-08-26T01:02:33;21.60;;;8.70;;
53666;SDS011;39568;51.026;5.468;2022-08-26T01:05:01;21.98;;;8.48;;
53666;SDS011;39568;51.026;5.468;2022-08-26T01:07:31;12.93;;;7.03;;
53666;SDS011;39568;51.026;5.468;2022-08-26T01:09:59;13.45;;;7.70;;
53666;SDS011;39568;51.026;5.468;2022-08-26T01:12:27;12.57;;;7.63;;
53666;SDS011;39568;51.026;5.468;2022-08-26T01:17:26;9.45;;;7.22;;
53666;SDS011;39568;51.026;5.468;2022-08-26T01:19:54;23.77;;;6.82;;
53666;SDS011;39568;51.026;5.468;2022-08-26T01:22:29;16.05;;;6.03;;
53666;SDS011;39568;51.026;5.468;2022-08-26T01:24:59;13.50;;;4.30;;
53666;SDS011;39568;51.026;5.468;2022-08-26T01:27:28;11.38;;;5.57;;
53666;SDS011;39568;51.026;5.468;2022-08-26T01:29:56;16.40;;;5.22;;
53666;SDS011;39568;51.026;5.468;2022-08-26T01:32:24;15.73;;;5.82;;
53666;SDS011;39568;51.026;5.468;2022-08-26T01:34:52;16.35;;;5.45;;
53666;SDS011;39568;51.026;5.468;2022-08-26T01:37:21;8.50;;;5.65;;
53666;SDS011;39568;51.026;5.468;2022-08-26T01:39:50;10.60;;;5.55;;
53666;SDS011;39568;51.026;5.468;2022-08-26T01:42:21;13.77;;;6.25;;
53666;SDS011;39568;51.026;5.468;2022-08-26T01:44:50;8.50;;;4.93;;
53666;SDS011;39568;51.026;5.468;2022-08-26T01:47:20;19.05;;;5.85;;
53666;SDS011;39568;51.026;5.468;2022-08-26T01:49:51;18.52;;;5.40;;
53666;SDS011;39568;51.026;5.468;2022-08-26T01:52:22;10.40;;;5.82;;
53666;SDS011;39568;51.026;5.468;2022-08-26T01:54:51;13.30;;;5.43;;
53666;SDS011;39568;51.026;5.468;2022-08-26T01:57:20;15.32;;;5.70;;
53666;SDS011;39568;51.026;5.468;2022-08-26T01:59:48;12.85;;;5.10;;
53666;SDS011;39568;51.026;5.468;2022-08-26T02:02:17;12.10;;;5.82;;
53666;SDS011;39568;51.026;5.468;2022-08-26T02:04:45;12.18;;;5.35;;
53666;SDS011;39568;51.026;5.468;2022-08-26T02:07:16;15.80;;;4.65;;
53666;SDS011;39568;51.026;5.468;2022-08-26T02:09:46;9.07;;;3.80;;
53666;SDS011;39568;51.026;5.468;2022-08-26T02:12:13;7.45;;;4.45;;
53666;SDS011;39568;51.026;5.468;2022-08-26T02:14:44;5.55;;;4.22;;
53666;SDS011;39568;51.026;5.468;2022-08-26T02:17:14;7.78;;;4.43;;
53666;SDS011;39568;51.026;5.468;2022-08-26T02:19:44;13.35;;;3.83;;
53666;SDS011;39568;51.026;5.468;2022-08-26T02:22:14;11.00;;;4.40;;
53666;SDS011;39568;51.026;5.468;2022-08-26T02:24:44;10.48;;;3.63;;
53666;SDS011;39568;51.026;5.468;2022-08-26T02:27:13;13.03;;;3.90;;
53666;SDS011;39568;51.026;5.468;2022-08-26T02:29:41;7.55;;;3.58;;
53666;SDS011;39568;51.026;5.468;2022-08-26T02:32:13;17.70;;;3.25;;
53666;SDS011;39568;51.026;5.468;2022-08-26T02:34:40;12.63;;;2.85;;
53666;SDS011;39568;51.026;5.468;2022-08-26T02:37:08;17.25;;;3.35;;
53666;SDS011;39568;51.026;5.468;2022-08-26T02:39:36;9.68;;;2.63;;
53666;SDS011;39568;51.026;5.468;2022-08-26T02:42:05;5.32;;;2.30;;
53666;SDS011;39568;51.026;5.468;2022-08-26T02:44:32;16.58;;;3.00;;
53666;SDS011;39568;51.026;5.468;2022-08-26T02:47:01;8.27;;;3.63;;
53666;SDS011;39568;51.026;5.468;2022-08-26T02:49:28;8.43;;;2.80;;
53666;SDS011;39568;51.026;5.468;2022-08-26T02:51:55;10.23;;;2.85;;
53666;SDS011;39568;51.026;5.468;2022-08-26T02:54:22;6.93;;;2.60;;
53666;SDS011;39568;51.026;5.468;2022-08-26T02:56:49;16.38;;;3.28;;
53666;SDS011;39568;51.026;5.468;2022-08-26T02:59:16;15.25;;;3.92;;
53666;SDS011;39568;51.026;5.468;2022-08-26T03:01:42;9.38;;;3.10;;
53666;SDS011;39568;51.026;5.468;2022-08-26T03:04:12;8.57;;;2.95;;
53666;SDS011;39568;51.026;5.468;2022-08-26T03:06:39;7.38;;;3.17;;
53666;SDS011;39568;51.026;5.468;2022-08-26T03:09:06;10.35;;;3.15;;
53666;SDS011;39568;51.026;5.468;2022-08-26T03:11:33;8.93;;;3.45;;
53666;SDS011;39568;51.026;5.468;2022-08-26T03:14:00;8.95;;;3.30;;
53666;SDS011;39568;51.026;5.468;2022-08-26T03:16:29;19.17;;;3.90;;
53666;SDS011;39568;51.026;5.468;2022-08-26T03:18:56;9.38;;;3.20;;
53666;SDS011;39568;51.026;5.468;2022-08-26T03:21:24;11.00;;;2.90;;
53666;SDS011;39568;51.026;5.468;2022-08-26T03:23:51;9.48;;;2.95;;
53666;SDS011;39568;51.026;5.468;2022-08-26T03:26:18;9.07;;;2.88;;
53666;SDS011;39568;51.026;5.468;2022-08-26T03:28:45;10.68;;;4.25;;
53666;SDS011;39568;51.026;5.468;2022-08-26T03:31:29;8.73;;;3.30;;
53666;SDS011;39568;51.026;5.468;2022-08-26T03:33:56;12.27;;;2.50;;
53666;SDS011;39568;51.026;5.468;2022-08-26T03:36:22;5.47;;;2.63;;
53666;SDS011;39568;51.026;5.468;2022-08-26T03:38:51;4.45;;;2.47;;
53666;SDS011;39568;51.026;5.468;2022-08-26T03:41:17;7.72;;;3.08;;
53666;SDS011;39568;51.026;5.468;2022-08-26T03:43:45;12.45;;;2.28;;
53666;SDS011;39568;51.026;5.468;2022-08-26T03:46:15;8.50;;;2.92;;
53666;SDS011;39568;51.026;5.468;2022-08-26T03:48:43;7.95;;;2.53;;
53666;SDS011;39568;51.026;5.468;2022-08-26T03:51:10;10.27;;;2.45;;
53666;SDS011;39568;51.026;5.468;2022-08-26T03:53:40;7.40;;;2.97;;
53666;SDS011;39568;51.026;5.468;2022-08-26T03:56:07;3.72;;;2.13;;
53666;SDS011;39568;51.026;5.468;2022-08-26T03:58:34;5.95;;;2.05;;
53666;SDS011;39568;51.026;5.468;2022-08-26T04:01:01;10.57;;;2.00;;
53666;SDS011;39568;51.026;5.468;2022-08-26T04:03:28;13.65;;;2.80;;
53666;SDS011;39568;51.026;5.468;2022-08-26T04:06:28;3.53;;;1.60;;
53666;SDS011;39568;51.026;5.468;2022-08-26T04:08:58;4.55;;;2.17;;
53666;SDS011;39568;51.026;5.468;2022-08-26T04:11:27;7.13;;;2.00;;
53666;SDS011;39568;51.026;5.468;2022-08-26T04:13:56;4.53;;;2.88;;
53666;SDS011;39568;51.026;5.468;2022-08-26T04:16:25;14.00;;;2.38;;
53666;SDS011;39568;51.026;5.468;2022-08-26T04:18:52;2.38;;;2.10;;
53666;SDS011;39568;51.026;5.468;2022-08-26T04:21:19;5.30;;;2.28;;
53666;SDS011;39568;51.026;5.468;2022-08-26T04:23:46;9.60;;;2.75;;
53666;SDS011;39568;51.026;5.468;2022-08-26T04:26:15;18.10;;;2.85;;
53666;SDS011;39568;51.026;5.468;2022-08-26T04:28:42;5.18;;;2.45;;
53666;SDS011;39568;51.026;5.468;2022-08-26T04:31:09;6.93;;;2.15;;
53666;SDS011;39568;51.026;5.468;2022-08-26T04:33:36;11.82;;;2.53;;
53666;SDS011;39568;51.026;5.468;2022-08-26T04:36:04;4.75;;;2.03;;
53666;SDS011;39568;51.026;5.468;2022-08-26T04:38:31;8.65;;;2.67;;
53666;SDS011;39568;51.026;5.468;2022-08-26T04:40:58;5.65;;;2.20;;
53666;SDS011;39568;51.026;5.468;2022-08-26T04:43:26;7.68;;;2.63;;
53666;SDS011;39568;51.026;5.468;2022-08-26T04:45:54;5.18;;;2.05;;
53666;SDS011;39568;51.026;5.468;2022-08-26T04:48:21;16.20;;;4.93;;
53666;SDS011;39568;51.026;5.468;2022-08-26T04:50:48;11.30;;;2.30;;
53666;SDS011;39568;51.026;5.468;2022-08-26T04:53:15;16.35;;;2.50;;
53666;SDS011;39568;51.026;5.468;2022-08-26T04:55:42;11.20;;;3.10;;
53666;SDS011;39568;51.026;5.468;2022-08-26T04:58:08;9.45;;;2.35;;
53666;SDS011;39568;51.026;5.468;2022-08-26T05:00:37;9.77;;;2.50;;
53666;SDS011;39568;51.026;5.468;2022-08-26T05:03:04;6.57;;;2.53;;
53666;SDS011;39568;51.026;5.468;2022-08-26T05:05:30;7.78;;;2.03;;
53666;SDS011;39568;51.026;5.468;2022-08-26T05:07:57;5.40;;;2.00;;
53666;SDS011;39568;51.026;5.468;2022-08-26T05:10:24;6.70;;;1.90;;
53666;SDS011;39568;51.026;5.468;2022-08-26T05:12:50;7.30;;;2.65;;
53666;SDS011;39568;51.026;5.468;2022-08-26T05:15:17;6.97;;;2.00;;
53666;SDS011;39568;51.026;5.468;2022-08-26T05:17:45;13.88;;;2.38;;
53666;SDS011;39568;51.026;5.468;2022-08-26T05:20:14;9.57;;;2.07;;
53666;SDS011;39568;51.026;5.468;2022-08-26T05:22:41;12.65;;;2.22;;
53666;SDS011;39568;51.026;5.468;2022-08-26T05:25:07;4.40;;;2.10;;
53666;SDS011;39568;51.026;5.468;2022-08-26T05:27:34;10.07;;;3.03;;
53666;SDS011;39568;51.026;5.468;2022-08-26T05:30:01;4.03;;;2.13;;
53666;SDS011;39568;51.026;5.468;2022-08-26T05:32:28;7.00;;;1.85;;
53666;SDS011;39568;51.026;5.468;2022-08-26T05:34:57;3.42;;;1.60;;
53666;SDS011;39568;51.026;5.468;2022-08-26T05:37:23;7.57;;;2.20;;
53666;SDS011;39568;51.026;5.468;2022-08-26T05:39:50;4.45;;;2.00;;
53666;SDS011;39568;51.026;5.468;2022-08-26T05:42:17;6.25;;;2.45;;
53666;SDS011;39568;51.026;5.468;2022-08-26T05:44:44;5.22;;;2.20;;
53666;SDS011;39568;51.026;5.468;2022-08-26T05:47:11;1.65;;;1.50;;
53666;SDS011;39568;51.026;5.468;2022-08-26T05:49:37;2.97;;;1.73;;
53666;SDS011;39568;51.026;5.468;2022-08-26T05:52:05;10.10;;;3.30;;
53666;SDS011;39568;51.026;5.468;2022-08-26T05:54:32;6.03;;;1.67;;
53666;SDS011;39568;51.026;5.468;2022-08-26T05:56:59;5.20;;;1.88;;
53666;SDS011;39568;51.026;5.468;2022-08-26T05:59:25;6.63;;;2.15;;
53666;SDS011;39568;51.026;5.468;2022-08-26T06:01:52;4.43;;;1.65;;
53666;SDS011;39568;51.026;5.468;2022-08-26T06:04:19;11.98;;;2.03;;
53666;SDS011;39568;51.026;5.468;2022-08-26T06:06:46;11.05;;;2.33;;
53666;SDS011;39568;51.026;5.468;2022-08-26T06:09:14;14.93;;;2.03;;
53666;SDS011;39568;51.026;5.468;2022-08-26T06:11:41;6.38;;;1.95;;
53666;SDS011;39568;51.026;5.468;2022-08-26T06:14:08;1.50;;;1.40;;
53666;SDS011;39568;51.026;5.468;2022-08-26T06:16:35;3.83;;;2.42;;
53666;SDS011;39568;51.026;5.468;2022-08-26T06:19:04;3.28;;;2.00;;
53666;SDS011;39568;51.026;5.468;2022-08-26T06:21:32;5.88;;;1.65;;
53666;SDS011;39568;51.026;5.468;2022-08-26T06:24:01;8.30;;;2.60;;
53666;SDS011;39568;51.026;5.468;2022-08-26T06:26:49;6.30;;;1.95;;
53666;SDS011;39568;51.026;5.468;2022-08-26T06:31:45;3.63;;;1.67;;
53666;SDS011;39568;51.026;5.468;2022-08-26T06:34:13;7.85;;;2.22;;
53666;SDS011;39568;51.026;5.468;2022-08-26T06:36:40;6.63;;;1.77;;
53666;SDS011;39568;51.026;5.468;2022-08-26T06:39:09;12.27;;;2.72;;
53666;SDS011;39568;51.026;5.468;2022-08-26T06:41:38;5.65;;;2.08;;
53666;SDS011;39568;51.026;5.468;2022-08-26T06:44:08;8.50;;;2.42;;
53666;SDS011;39568;51.026;5.468;2022-08-26T06:46:35;7.97;;;1.98;;
53666;SDS011;39568;51.026;5.468;2022-08-26T06:49:02;2.45;;;1.98;;
53666;SDS011;39568;51.026;5.468;2022-08-26T06:51:29;9.65;;;2.22;;
53666;SDS011;39568;51.026;5.468;2022-08-26T06:53:58;15.43;;;3.35;;
53666;SDS011;39568;51.026;5.468;2022-08-26T06:56:27;12.45;;;2.88;;
53666;SDS011;39568;51.026;5.468;2022-08-26T06:58:58;4.88;;;2.55;;
53666;SDS011;39568;51.026;5.468;2022-08-26T07:01:26;2.88;;;2.35;;
53666;SDS011;39568;51.026;5.468;2022-08-26T07:03:56;9.77;;;2.38;;
53666;SDS011;39568;51.026;5.468;2022-08-26T07:06:27;10.45;;;2.40;;
53666;SDS011;39568;51.026;5.468;2022-08-26T07:08:58;5.10;;;2.55;;
53666;SDS011;39568;51.026;5.468;2022-08-26T07:11:28;4.43;;;2.28;;
53666;SDS011;39568;51.026;5.468;2022-08-26T07:13:55;5.65;;;2.50;;
53666;SDS011;39568;51.026;5.468;2022-08-26T07:16:23;12.65;;;4.10;;
53666;SDS011;39568;51.026;5.468;2022-08-26T07:18:53;9.63;;;2.10;;
53666;SDS011;39568;51.026;5.468;2022-08-26T07:21:21;6.32;;;2.28;;
53666;SDS011;39568;51.026;5.468;2022-08-26T07:23:49;5.55;;;1.88;;
53666;SDS011;39568;51.026;5.468;2022-08-26T07:26:17;2.88;;;1.30;;
53666;SDS011;39568;51.026;5.468;2022-08-26T07:28:46;3.55;;;1.20;;
53666;SDS011;39568;51.026;5.468;2022-08-26T07:31:17;4.13;;;0.98;;
53666;SDS011;39568;51.026;5.468;2022-08-26T07:33:46;4.88;;;1.20;;
53666;SDS011;39568;51.026;5.468;2022-08-26T07:36:15;7.05;;;1.98;;
53666;SDS011;39568;51.026;5.468;2022-08-26T07:38:44;10.43;;;1.98;;
53666;SDS011;39568;51.026;5.468;2022-08-26T07:41:13;5.47;;;1.25;;
53666;SDS011;39568;51.026;5.468;2022-08-26T07:43:41;4.35;;;1.65;;
53666;SDS011;39568;51.026;5.468;2022-08-26T07:46:08;8.00;;;1.20;;
53666;SDS011;39568;51.026;5.468;2022-08-26T07:48:38;4.07;;;1.00;;
53666;SDS011;39568;51.026;5.468;2022-08-26T07:51:05;10.35;;;1.55;;
53666;SDS011;39568;51.026;5.468;2022-08-26T07:53:34;3.10;;;1.20;;
53666;SDS011;39568;51.026;5.468;2022-08-26T07:56:02;8.00;;;1.10;;
53666;SDS011;39568;51.026;5.468;2022-08-26T07:58:29;1.70;;;0.75;;
53666;SDS011;39568;51.026;5.468;2022-08-26T08:00:56;2.50;;;1.13;;
53666;SDS011;39568;51.026;5.468;2022-08-26T08:03:23;4.65;;;0.60;;
53666;SDS011;39568;51.026;5.468;2022-08-26T08:05:50;3.35;;;1.08;;
53666;SDS011;39568;51.026;5.468;2022-08-26T08:08:17;1.40;;;1.30;;
53666;SDS011;39568;51.026;5.468;2022-08-26T08:10:46;1.10;;;0.65;;
53666;SDS011;39568;51.026;5.468;2022-08-26T08:13:13;6.63;;;1.15;;
53666;SDS011;39568;51.026;5.468;2022-08-26T08:15:40;5.65;;;0.70;;
53666;SDS011;39568;51.026;5.468;2022-08-26T08:18:07;1.98;;;1.10;;
53666;SDS011;39568;51.026;5.468;2022-08-26T08:20:34;4.55;;;1.42;;
53666;SDS011;39568;51.026;5.468;2022-08-26T08:23:02;10.20;;;1.30;;
53666;SDS011;39568;51.026;5.468;2022-08-26T08:25:29;2.67;;;0.68;;
53666;SDS011;39568;51.026;5.468;2022-08-26T08:27:58;1.33;;;0.98;;
53666;SDS011;39568;51.026;5.468;2022-08-26T08:30:24;1.02;;;0.70;;
53666;SDS011;39568;51.026;5.468;2022-08-26T08:32:52;3.15;;;0.90;;
53666;SDS011;39568;51.026;5.468;2022-08-26T08:35:19;6.32;;;0.85;;
53666;SDS011;39568;51.026;5.468;2022-08-26T08:37:47;3.67;;;1.02;;
53666;SDS011;39568;51.026;5.468;2022-08-26T08:40:16;5.72;;;0.77;;
53666;SDS011;39568;51.026;5.468;2022-08-26T08:42:43;1.98;;;0.57;;
53666;SDS011;39568;51.026;5.468;2022-08-26T08:45:19;4.85;;;1.40;;
53666;SDS011;39568;51.026;5.468;2022-08-26T08:47:51;0.77;;;0.50;;
53666;SDS011;39568;51.026;5.468;2022-08-26T08:50:22;1.13;;;0.50;;
53666;SDS011;39568;51.026;5.468;2022-08-26T08:52:55;1.35;;;0.88;;
53666;SDS011;39568;51.026;5.468;2022-08-26T08:55:29;3.22;;;0.60;;
53666;SDS011;39568;51.026;5.468;2022-08-26T08:58:06;4.53;;;1.00;;
53666;SDS011;39568;51.026;5.468;2022-08-26T09:00:41;2.35;;;1.00;;
53666;SDS011;39568;51.026;5.468;2022-08-26T09:03:17;4.38;;;0.93;;
53666;SDS011;39568;51.026;5.468;2022-08-26T09:05:56;2.15;;;0.75;;
53666;SDS011;39568;51.026;5.468;2022-08-26T09:08:25;4.05;;;0.90;;
53666;SDS011;39568;51.026;5.468;2022-08-26T09:10:57;4.35;;;1.00;;
53666;SDS011;39568;51.026;5.468;2022-08-26T09:13:26;7.03;;;1.27;;
53666;SDS011;39568;51.026;5.468;2022-08-26T09:15:57;4.72;;;0.82;;
53666;SDS011;39568;51.026;5.468;2022-08-26T09:18:33;1.13;;;0.80;;
53666;SDS011;39568;51.026;5.468;2022-08-26T09:21:13;3.13;;;0.68;;
53666;SDS011;39568;51.026;5.468;2022-08-26T09:23:42;2.03;;;0.82;;
53666;SDS011;39568;51.026;5.468;2022-08-26T09:26:13;5.18;;;1.00;;
53666;SDS011;39568;51.026;5.468;2022-08-26T09:28:44;5.78;;;0.70;;
53666;SDS011;39568;51.026;5.468;2022-08-26T09:33:45;2.63;;;1.33;;
53666;SDS011;39568;51.026;5.468;2022-08-26T09:36:34;6.07;;;1.13;;
53666;SDS011;39568;51.026;5.468;2022-08-26T09:39:02;0.98;;;0.60;;
53666;SDS011;39568;51.026;5.468;2022-08-26T09:41:31;3.50;;;0.88;;
53666;SDS011;39568;51.026;5.468;2022-08-26T09:44:10;2.95;;;1.02;;
53666;SDS011;39568;51.026;5.468;2022-08-26T09:46:40;1.35;;;0.65;;
53666;SDS011;39568;51.026;5.468;2022-08-26T09:49:20;2.20;;;0.95;;
53666;SDS011;39568;51.026;5.468;2022-08-26T09:52:01;2.95;;;1.27;;
53666;SDS011;39568;51.026;5.468;2022-08-26T09:54:56;7.30;;;2.45;;
53666;SDS011;39568;51.026;5.468;2022-08-26T09:57:26;3.00;;;1.33;;
53666;SDS011;39568;51.026;5.468;2022-08-26T09:59:55;9.73;;;1.83;;
53666;SDS011;39568;51.026;5.468;2022-08-26T10:02:36;3.53;;;1.65;;
53666;SDS011;39568;51.026;5.468;2022-08-26T10:05:07;9.88;;;1.52;;
53666;SDS011;39568;51.026;5.468;2022-08-26T10:07:42;6.03;;;2.15;;
53666;SDS011;39568;51.026;5.468;2022-08-26T10:10:12;3.50;;;2.20;;
53666;SDS011;39568;51.026;5.468;2022-08-26T10:12:45;10.63;;;2.78;;
53666;SDS011;39568;51.026;5.468;2022-08-26T10:15:15;4.78;;;2.47;;
53666;SDS011;39568;51.026;5.468;2022-08-26T10:17:46;3.63;;;2.40;;
53666;SDS011;39568;51.026;5.468;2022-08-26T10:20:17;8.23;;;2.92;;
53666;SDS011;39568;51.026;5.468;2022-08-26T10:25:19;8.73;;;2.88;;
53666;SDS011;39568;51.026;5.468;2022-08-26T10:27:51;10.90;;;2.85;;
53666;SDS011;39568;51.026;5.468;2022-08-26T10:30:26;10.95;;;3.40;;
53666;SDS011;39568;51.026;5.468;2022-08-26T10:33:01;7.15;;;3.55;;
53666;SDS011;39568;51.026;5.468;2022-08-26T10:35:30;6.43;;;3.95;;
53666;SDS011;39568;51.026;5.468;2022-08-26T10:38:00;8.55;;;4.57;;
53666;SDS011;39568;51.026;5.468;2022-08-26T10:40:33;11.07;;;4.53;;
53666;SDS011;39568;51.026;5.468;2022-08-26T10:43:07;10.70;;;4.28;;
53666;SDS011;39568;51.026;5.468;2022-08-26T10:45:41;21.27;;;4.15;;
53666;SDS011;39568;51.026;5.468;2022-08-26T10:48:15;13.75;;;4.50;;
53666;SDS011;39568;51.026;5.468;2022-08-26T10:50:44;5.03;;;4.20;;
53666;SDS011;39568;51.026;5.468;2022-08-26T10:53:13;10.32;;;4.10;;
53666;SDS011;39568;51.026;5.468;2022-08-26T10:55:44;7.95;;;4.20;;
53666;SDS011;39568;51.026;5.468;2022-08-26T10:58:23;6.97;;;4.25;;
53666;SDS011;39568;51.026;5.468;2022-08-26T11:00:57;4.63;;;3.92;;
53666;SDS011;39568;51.026;5.468;2022-08-26T11:03:49;8.73;;;3.78;;
53666;SDS011;39568;51.026;5.468;2022-08-26T11:06:24;8.35;;;3.65;;
53666;SDS011;39568;51.026;5.468;2022-08-26T11:08:53;9.93;;;4.32;;
53666;SDS011;39568;51.026;5.468;2022-08-26T11:11:40;10.35;;;4.30;;
53666;SDS011;39568;51.026;5.468;2022-08-26T11:14:10;6.88;;;5.43;;
53666;SDS011;39568;51.026;5.468;2022-08-26T11:16:56;9.90;;;4.45;;
53666;SDS011;39568;51.026;5.468;2022-08-26T11:22:37;16.25;;;4.68;;
53666;SDS011;39568;51.026;5.468;2022-08-26T11:25:05;11.23;;;4.38;;
53666;SDS011;39568;51.026;5.468;2022-08-26T11:39:25;12.25;;;4.40;;
53666;SDS011;39568;51.026;5.468;2022-08-26T11:41:57;11.30;;;5.05;;
53666;SDS011;39568;51.026;5.468;2022-08-26T11:44:26;12.00;;;5.93;;
53666;SDS011;39568;51.026;5.468;2022-08-26T11:47:02;4.95;;;4.07;;
53666;SDS011;39568;51.026;5.468;2022-08-26T11:49:29;10.68;;;4.45;;
53666;SDS011;39568;51.026;5.468;2022-08-26T11:52:07;8.57;;;4.15;;
53666;SDS011;39568;51.026;5.468;2022-08-26T11:54:36;9.05;;;3.88;;
53666;SDS011;39568;51.026;5.468;2022-08-26T11:57:03;8.45;;;3.50;;
53666;SDS011;39568;51.026;5.468;2022-08-26T11:59:33;9.85;;;3.00;;
53666;SDS011;39568;51.026;5.468;2022-08-26T12:02:04;5.20;;;3.17;;
53666;SDS011;39568;51.026;5.468;2022-08-26T12:04:38;9.90;;;3.38;;
53666;SDS011;39568;51.026;5.468;2022-08-26T12:07:07;16.08;;;3.85;;
53666;SDS011;39568;51.026;5.468;2022-08-26T12:09:35;7.95;;;2.78;;
53666;SDS011;39568;51.026;5.468;2022-08-26T12:14:43;8.18;;;2.40;;
53666;SDS011;39568;51.026;5.468;2022-08-26T12:17:11;12.20;;;2.38;;
53666;SDS011;39568;51.026;5.468;2022-08-26T12:19:40;4.45;;;2.08;;
53666;SDS011;39568;51.026;5.468;2022-08-26T12:22:15;12.25;;;2.05;;
53666;SDS011;39568;51.026;5.468;2022-08-26T12:24:48;11.23;;;3.50;;
53666;SDS011;39568;51.026;5.468;2022-08-26T12:27:20;6.03;;;2.78;;
53666;SDS011;39568;51.026;5.468;2022-08-26T12:29:58;14.68;;;3.47;;
53666;SDS011;39568;51.026;5.468;2022-08-26T12:32:27;6.97;;;2.17;;
53666;SDS011;39568;51.026;5.468;2022-08-26T12:34:55;22.40;;;3.85;;
53666;SDS011;39568;51.026;5.468;2022-08-26T12:37:22;11.95;;;4.32;;
53666;SDS011;39568;51.026;5.468;2022-08-26T12:39:52;7.60;;;3.60;;
53666;SDS011;39568;51.026;5.468;2022-08-26T12:42:23;19.55;;;4.80;;
53666;SDS011;39568;51.026;5.468;2022-08-26T12:45:06;23.92;;;4.13;;
53666;SDS011;39568;51.026;5.468;2022-08-26T12:47:34;6.75;;;3.33;;
53666;SDS011;39568;51.026;5.468;2022-08-26T12:50:04;6.80;;;3.55;;
53666;SDS011;39568;51.026;5.468;2022-08-26T12:52:33;9.40;;;3.58;;
53666;SDS011;39568;51.026;5.468;2022-08-26T12:55:18;10.65;;;3.45;;
53666;SDS011;39568;51.026;5.468;2022-08-26T12:57:46;9.00;;;3.70;;
53666;SDS011;39568;51.026;5.468;2022-08-26T13:00:30;10.15;;;3.22;;
53666;SDS011;39568;51.026;5.468;2022-08-26T13:02:58;6.18;;;2.33;;
53666;SDS011;39568;51.026;5.468;2022-08-26T13:05:27;7.03;;;2.63;;
53666;SDS011;39568;51.026;5.468;2022-08-26T13:08:07;6.78;;;2.25;;
53666;SDS011;39568;51.026;5.468;2022-08-26T13:10:38;4.95;;;2.00;;
53666;SDS011;39568;51.026;5.468;2022-08-26T13:13:07;7.97;;;2.17;;
53666;SDS011;39568;51.026;5.468;2022-08-26T13:15:33;8.10;;;2.20;;
53666;SDS011;39568;51.026;5.468;2022-08-26T13:18:04;3.75;;;2.08;;
53666;SDS011;39568;51.026;5.468;2022-08-26T13:20:31;6.70;;;1.90;;
53666;SDS011;39568;51.026;5.468;2022-08-26T13:22:59;6.18;;;1.77;;
53666;SDS011;39568;51.026;5.468;2022-08-26T13:25:27;4.70;;;1.85;;
53666;SDS011;39568;51.026;5.468;2022-08-26T13:27:55;3.92;;;1.55;;
53666;SDS011;39568;51.026;5.468;2022-08-26T13:30:22;5.63;;;1.75;;
53666;SDS011;39568;51.026;5.468;2022-08-26T13:32:57;10.32;;;2.47;;
53666;SDS011;39568;51.026;5.468;2022-08-26T13:35:25;4.07;;;2.10;;
53666;SDS011;39568;51.026;5.468;2022-08-26T13:37:52;7.38;;;2.00;;
53666;SDS011;39568;51.026;5.468;2022-08-26T13:40:19;8.23;;;2.42;;
53666;SDS011;39568;51.026;5.468;2022-08-26T13:42:46;10.77;;;2.28;;
53666;SDS011;39568;51.026;5.468;2022-08-26T13:45:14;10.43;;;2.00;;
53666;SDS011;39568;51.026;5.468;2022-08-26T13:47:40;7.68;;;2.45;;
53666;SDS011;39568;51.026;5.468;2022-08-26T13:50:07;7.78;;;2.83;;
53666;SDS011;39568;51.026;5.468;2022-08-26T13:52:34;4.60;;;2.28;;
53666;SDS011;39568;51.026;5.468;2022-08-26T13:55:00;11.10;;;2.90;;
53666;SDS011;39568;51.026;5.468;2022-08-26T13:57:27;3.53;;;1.90;;
53666;SDS011;39568;51.026;5.468;2022-08-26T13:59:55;9.18;;;2.17;;
53666;SDS011;39568;51.026;5.468;2022-08-26T14:02:24;3.60;;;2.38;;
53666;SDS011;39568;51.026;5.468;2022-08-26T14:04:52;7.32;;;2.10;;
53666;SDS011;39568;51.026;5.468;2022-08-26T14:07:19;7.93;;;2.45;;
53666;SDS011;39568;51.026;5.468;2022-08-26T14:09:46;10.25;;;2.67;;
53666;SDS011;39568;51.026;5.468;2022-08-26T14:12:12;7.63;;;1.63;;
53666;SDS011;39568;51.026;5.468;2022-08-26T14:14:40;5.30;;;1.80;;
53666;SDS011;39568;51.026;5.468;2022-08-26T14:17:07;11.02;;;2.45;;
53666;SDS011;39568;51.026;5.468;2022-08-26T14:19:36;8.00;;;1.60;;
53666;SDS011;39568;51.026;5.468;2022-08-26T14:22:03;6.68;;;1.38;;
53666;SDS011;39568;51.026;5.468;2022-08-26T14:24:30;8.02;;;1.65;;
53666;SDS011;39568;51.026;5.468;2022-08-26T14:26:56;7.40;;;1.20;;
53666;SDS011;39568;51.026;5.468;2022-08-26T14:29:23;4.53;;;1.23;;
53666;SDS011;39568;51.026;5.468;2022-08-26T14:31:50;2.00;;;0.70;;
53666;SDS011;39568;51.026;5.468;2022-08-26T14:34:18;3.58;;;1.20;;
53666;SDS011;39568;51.026;5.468;2022-08-26T14:36:46;1.85;;;1.05;;
53666;SDS011;39568;51.026;5.468;2022-08-26T14:39:13;11.48;;;0.80;;
53666;SDS011;39568;51.026;5.468;2022-08-26T14:41:41;3.53;;;1.20;;
53666;SDS011;39568;51.026;5.468;2022-08-26T14:44:13;6.45;;;1.42;;
53666;SDS011;39568;51.026;5.468;2022-08-26T14:46:42;2.30;;;1.60;;
53666;SDS011;39568;51.026;5.468;2022-08-26T14:49:10;8.20;;;1.52;;
53666;SDS011;39568;51.026;5.468;2022-08-26T14:51:37;3.00;;;0.88;;
53666;SDS011;39568;51.026;5.468;2022-08-26T14:54:06;5.10;;;1.30;;
53666;SDS011;39568;51.026;5.468;2022-08-26T14:56:41;2.40;;;0.73;;
53666;SDS011;39568;51.026;5.468;2022-08-26T15:01:36;2.30;;;1.00;;
53666;SDS011;39568;51.026;5.468;2022-08-26T15:04:03;4.88;;;1.00;;
53666;SDS011;39568;51.026;5.468;2022-08-26T15:06:30;5.68;;;0.98;;
53666;SDS011;39568;51.026;5.468;2022-08-26T15:08:57;2.47;;;0.90;;
53666;SDS011;39568;51.026;5.468;2022-08-26T15:11:25;2.40;;;1.13;;
53666;SDS011;39568;51.026;5.468;2022-08-26T15:13:52;10.82;;;1.05;;
53666;SDS011;39568;51.026;5.468;2022-08-26T15:16:19;3.55;;;1.25;;
53666;SDS011;39568;51.026;5.468;2022-08-26T15:18:46;6.13;;;1.50;;
53666;SDS011;39568;51.026;5.468;2022-08-26T15:21:15;2.55;;;1.00;;
53666;SDS011;39568;51.026;5.468;2022-08-26T15:23:42;3.65;;;1.02;;
53666;SDS011;39568;51.026;5.468;2022-08-26T15:26:08;3.28;;;0.98;;